createdAt,value
2023-04-02T00:02:55.196Z,2.90
2023-04-02T00:08:10.391Z,2.77
2023-04-02T00:13:12.040Z,3.23
2023-04-02T00:18:20.868Z,2.53
2023-04-02T00:23:25.553Z,2.77
2023-04-02T00:28:29.281Z,3.27
2023-04-02T00:33:34.509Z,2.67
2023-04-02T00:38:36.897Z,2.70
2023-04-02T00:43:46.832Z,2.73
2023-04-02T00:48:56.452Z,3.17
2023-04-02T00:54:01.745Z,2.50
2023-04-02T00:59:20.381Z,2.93
2023-04-02T01:04:28.858Z,2.80
2023-04-02T01:10:07.840Z,2.77
2023-04-02T01:15:30.252Z,2.13
2023-04-02T01:20:44.103Z,2.30
2023-04-02T01:25:54.935Z,2.87
2023-04-02T01:31:01.879Z,2.10
2023-04-02T01:36:19.298Z,3.30
2023-04-02T01:41:29.794Z,2.50
2023-04-02T01:46:33.561Z,2.73
2023-04-02T01:51:40.955Z,2.93
2023-04-02T01:56:48.911Z,2.90
2023-04-02T02:01:59.216Z,2.43
2023-04-02T02:07:01.654Z,3.13
2023-04-02T02:12:09.853Z,2.13
2023-04-02T02:17:17.590Z,2.50
2023-04-02T02:22:37.175Z,2.80
2023-04-02T02:27:42.134Z,2.83
2023-04-02T02:33:01.391Z,2.20
2023-04-02T02:38:36.511Z,2.67
2023-04-02T02:43:56.414Z,2.43
2023-04-02T02:49:00.897Z,2.33
2023-04-02T02:54:04.393Z,2.50
2023-04-02T02:59:09.279Z,2.40
2023-04-02T03:04:21.036Z,2.40
2023-04-02T03:09:32.433Z,2.30
2023-04-02T03:15:19.160Z,2.20
2023-04-02T03:20:24.286Z,2.77
2023-04-02T03:25:40.566Z,2.83
2023-04-02T03:30:46.420Z,2.23
2023-04-02T03:36:14.557Z,2.93
2023-04-02T03:41:29.306Z,2.83
2023-04-02T03:46:36.694Z,2.57
2023-04-02T03:52:14.536Z,2.80
2023-04-02T03:57:31.750Z,2.10
2023-04-02T04:02:48.685Z,2.00
2023-04-02T04:07:53.932Z,2.93
2023-04-02T04:13:04.470Z,1.83
2023-04-02T04:18:34.754Z,2.00
2023-04-02T04:23:49.882Z,2.30
2023-04-02T04:29:00.528Z,2.07
2023-04-02T04:34:16.114Z,3.00
2023-04-02T04:39:29.694Z,2.50
2023-04-02T04:44:42.478Z,2.40
2023-04-02T04:49:47.454Z,3.20
2023-04-02T04:54:51.240Z,1.80
2023-04-02T05:00:11.231Z,1.80
2023-04-02T05:05:29.216Z,1.77
2023-04-02T05:10:50.529Z,2.00
2023-04-02T05:16:05.244Z,1.70
2023-04-02T05:21:18.352Z,2.00
2023-04-02T05:26:32.243Z,1.77
2023-04-02T05:31:44.945Z,1.67
2023-04-02T05:36:53.856Z,1.60
2023-04-02T05:42:08.323Z,1.87
2023-04-02T05:47:31.514Z,1.67
2023-04-02T05:52:41.674Z,1.80
2023-04-02T05:58:13.584Z,1.87
2023-04-02T06:04:00.889Z,1.80
2023-04-02T06:09:14.349Z,1.40
2023-04-02T06:14:17.334Z,1.80
2023-04-02T06:19:32.347Z,2.03
2023-04-02T06:24:37.564Z,1.43
2023-04-02T06:29:42.674Z,1.40
2023-04-02T06:34:51.081Z,1.87
2023-04-02T06:39:54.253Z,1.83
2023-04-02T06:44:58.318Z,1.80
2023-04-02T06:50:49.929Z,1.50
2023-04-02T06:55:58.917Z,1.90
2023-04-02T07:01:09.495Z,1.60
2023-04-02T07:06:19.229Z,1.40
2023-04-02T07:11:23.111Z,1.60
2023-04-02T07:16:30.572Z,1.67
2023-04-02T07:21:32.842Z,1.57
2023-04-02T07:26:37.763Z,1.20
2023-04-02T07:31:53.014Z,1.80
2023-04-02T07:36:54.858Z,1.40
2023-04-02T07:41:58.704Z,1.47
2023-04-02T07:47:00.661Z,1.70
2023-04-02T07:52:02.893Z,1.30
2023-04-02T07:57:04.811Z,1.50
2023-04-02T08:02:06.927Z,1.60
2023-04-02T08:07:11.075Z,1.23
2023-04-02T08:12:18.144Z,1.33
2023-04-02T08:17:28.128Z,1.40
2023-04-02T08:22:35.106Z,1.10
2023-04-02T08:27:37.157Z,1.63
2023-04-02T08:32:43.966Z,1.60
2023-04-02T08:37:45.717Z,1.63
2023-04-02T08:42:59.804Z,1.70
2023-04-02T08:48:03.533Z,2.30
2023-04-02T08:53:14.262Z,1.87
2023-04-02T08:58:43.807Z,1.40
2023-04-02T09:03:47.814Z,1.30
2023-04-02T09:08:51.360Z,1.50
2023-04-02T09:13:58.456Z,1.60
2023-04-02T09:19:02.934Z,1.10
2023-04-02T09:24:07.081Z,1.40
2023-04-02T09:29:11.779Z,1.60
2023-04-02T09:34:33.719Z,1.30
2023-04-02T09:39:38.164Z,1.63
2023-04-02T09:44:42.174Z,1.33
2023-04-02T09:49:44.234Z,1.50
2023-04-02T09:54:47.711Z,1.40
2023-04-02T10:00:29.750Z,1.27
2023-04-02T10:10:43.647Z,1.13
2023-04-02T10:15:56.308Z,1.33
2023-04-02T10:21:03.940Z,1.13
2023-04-02T10:26:50.312Z,3.33
2023-04-02T10:32:21.778Z,1.40
2023-04-02T10:37:27.360Z,1.50
2023-04-02T10:42:50.638Z,1.40
2023-04-02T10:48:03.225Z,1.43
2023-04-02T10:53:24.147Z,8.30
2023-04-02T10:58:29.490Z,1.20
2023-04-02T11:03:41.681Z,1.23
2023-04-02T11:08:51.662Z,1.10
2023-04-02T11:14:02.990Z,1.30
2023-04-02T11:19:16.728Z,1.00
2023-04-02T11:24:37.183Z,1.30
2023-04-02T11:29:39.224Z,1.30
2023-04-02T11:35:02.908Z,1.37
2023-04-02T11:40:19.188Z,1.13
2023-04-02T11:45:23.286Z,1.00
2023-04-02T11:50:38.045Z,1.00
2023-04-02T11:55:43.186Z,1.10
2023-04-02T12:01:11.741Z,1.20
2023-04-02T12:06:25.771Z,1.02
2023-04-02T12:11:37.598Z,1.00
2023-04-02T12:16:44.000Z,1.17
2023-04-02T12:21:47.508Z,0.88
2023-04-02T12:26:52.656Z,1.10
2023-04-02T12:31:58.433Z,1.08
2023-04-02T12:37:08.341Z,0.80
2023-04-02T12:42:28.145Z,0.85
2023-04-02T12:47:30.454Z,0.63
2023-04-02T12:52:32.840Z,0.60
2023-04-02T12:57:36.396Z,0.52
2023-04-02T13:02:48.639Z,0.85
2023-04-02T13:07:55.482Z,0.82
2023-04-02T13:13:05.105Z,0.63
2023-04-02T13:18:12.835Z,0.70
2023-04-02T13:23:31.126Z,0.50
2023-04-02T13:28:32.918Z,0.60
2023-04-02T13:33:39.565Z,0.60
2023-04-02T13:38:41.485Z,0.70
2023-04-02T13:43:43.366Z,0.77
2023-04-02T13:48:45.034Z,0.50
2023-04-02T13:53:51.558Z,1.48
2023-04-02T13:58:53.750Z,0.70
2023-04-02T14:03:58.331Z,0.70
2023-04-02T14:09:09.701Z,1.02
2023-04-02T14:14:40.149Z,0.93
2023-04-02T14:20:13.367Z,0.80
2023-04-02T14:25:39.944Z,0.95
2023-04-02T14:30:49.976Z,0.60
2023-04-02T14:36:00.356Z,1.35
2023-04-02T14:41:05.662Z,0.73
2023-04-02T14:46:11.396Z,0.75
2023-04-02T14:51:47.196Z,0.98
2023-04-02T14:57:16.944Z,0.70
2023-04-02T15:02:24.769Z,0.60
2023-04-02T15:07:31.469Z,0.70
2023-04-02T15:12:36.538Z,0.70
2023-04-02T15:17:40.408Z,2.13
2023-04-02T15:22:53.824Z,0.60
2023-04-02T15:28:40.897Z,0.60
2023-04-02T15:34:09.025Z,0.82
2023-04-02T15:39:37.843Z,0.70
2023-04-02T15:44:58.645Z,0.88
2023-04-02T15:50:29.416Z,0.90
2023-04-02T15:55:40.752Z,1.75
2023-04-02T16:01:14.039Z,1.65
2023-04-02T16:06:29.149Z,0.98
2023-04-02T16:11:40.248Z,1.20
2023-04-02T16:16:42.870Z,0.70
2023-04-02T16:21:50.437Z,1.17
2023-04-02T16:26:57.580Z,2.38
2023-04-02T16:32:07.856Z,1.83
2023-04-02T16:37:24.118Z,1.40
2023-04-02T16:42:31.210Z,1.38
2023-04-02T16:48:04.869Z,1.77
2023-04-02T16:53:24.312Z,2.28
2023-04-02T16:58:48.420Z,1.17
2023-04-02T17:04:15.033Z,1.10
2023-04-02T17:09:27.956Z,1.33
2023-04-02T17:14:45.308Z,1.50
2023-04-02T17:19:50.435Z,1.77
2023-04-02T17:25:00.867Z,1.70
2023-04-02T17:30:31.769Z,1.20
2023-04-02T17:35:47.795Z,1.50
2023-04-02T17:40:56.147Z,1.50
2023-04-02T17:46:03.772Z,1.67
2023-04-02T17:51:16.920Z,1.33
2023-04-02T17:56:49.988Z,1.53
2023-04-02T18:01:57.761Z,1.27
2023-04-02T18:07:11.398Z,1.70
2023-04-02T18:12:19.035Z,2.13
2023-04-02T18:17:30.493Z,1.87
2023-04-02T18:22:32.500Z,1.70
2023-04-02T18:28:02.836Z,3.07
2023-04-02T18:33:20.612Z,5.23
2023-04-02T18:38:40.968Z,4.90
2023-04-02T18:43:48.810Z,6.33
2023-04-02T18:49:01.392Z,6.63
2023-04-02T18:54:14.604Z,4.47
2023-04-02T18:59:35.543Z,3.83
2023-04-02T19:04:40.340Z,3.20
2023-04-02T19:09:44.615Z,2.20
2023-04-02T19:14:50.946Z,2.10
2023-04-02T19:20:18.818Z,1.80
2023-04-02T19:25:39.323Z,1.90
2023-04-02T19:30:56.598Z,1.50
2023-04-02T19:36:22.188Z,1.67
2023-04-02T19:41:35.104Z,1.60
2023-04-02T19:46:37.907Z,2.50
2023-04-02T19:51:39.819Z,1.40
2023-04-02T19:56:44.310Z,1.30
2023-04-02T20:01:48.224Z,1.10
2023-04-02T20:06:54.918Z,1.60
2023-04-02T20:11:56.988Z,1.07
2023-04-02T20:17:03.678Z,1.10
2023-04-02T20:22:10.740Z,1.23
2023-04-02T20:27:15.408Z,1.10
2023-04-02T20:32:17.684Z,1.33
2023-04-02T20:37:22.336Z,1.17
2023-04-02T20:42:25.590Z,1.30
2023-04-02T20:47:27.355Z,1.30
2023-04-02T20:52:30.318Z,1.60
2023-04-02T20:57:36.632Z,1.30
2023-04-02T21:02:38.504Z,1.30
2023-04-02T21:07:40.299Z,1.50
2023-04-02T21:12:44.284Z,1.73
2023-04-02T21:17:48.247Z,4.00
2023-04-02T21:22:52.262Z,4.90
2023-04-02T21:27:56.034Z,3.83
2023-04-02T21:33:00.295Z,3.87
2023-04-02T21:38:04.286Z,5.33
2023-04-02T21:43:08.467Z,3.63
2023-04-02T21:48:12.634Z,2.10
2023-04-02T21:53:14.320Z,2.37
2023-04-02T21:58:15.999Z,2.43
2023-04-02T22:03:30.967Z,1.57
2023-04-02T22:08:37.708Z,2.00
2023-04-02T22:13:40.450Z,1.60
2023-04-02T22:18:42.976Z,1.43
2023-04-02T22:23:47.567Z,1.70
2023-04-02T22:28:49.651Z,1.40
2023-04-02T22:33:55.295Z,2.00
2023-04-02T22:39:05.014Z,1.67
2023-04-02T22:44:13.344Z,1.70
2023-04-02T22:49:19.706Z,1.63
2023-04-02T22:54:26.275Z,1.70
2023-04-02T22:59:27.932Z,1.87
2023-04-02T23:04:34.123Z,1.70
2023-04-02T23:09:36.398Z,1.80
2023-04-02T23:14:40.791Z,1.97
2023-04-02T23:19:42.419Z,1.80
2023-04-02T23:24:46.643Z,1.80
2023-04-02T23:29:49.567Z,2.13
2023-04-02T23:34:51.274Z,2.30
2023-04-02T23:39:55.359Z,2.00
2023-04-02T23:44:57.060Z,1.97
2023-04-02T23:49:59.451Z,1.90
2023-04-02T23:55:03.516Z,2.10
